Time;durP1;ratioP1;P1;durP2;ratioP2;P2;SDS_P1;SDS_P2;PMS_P1;PMS_P2;Temp;Humidity;BMP_temperature;BMP_pressure;BME280_temperature;BME280_humidity;BME280_pressure;Samples;Min_cycle;Max_cycle;Signal;HPM_P1;HPM_P2
2022/04/29 00:02:15;;;;;;;7.47;6.13;;;8.30;99.90;;;;;;5051784;28;20029;-70
2022/04/29 00:04:42;;;;;;;11.37;6.20;;;8.40;99.90;;;;;;5051808;28;20029;-70
2022/04/29 00:07:09;;;;;;;11.23;5.53;;;8.40;99.90;;;;;;5051259;28;20063;-70
2022/04/29 00:09:36;;;;;;;8.97;5.13;;;8.30;99.90;;;;;;5051802;28;20064;-70
2022/04/29 00:12:03;;;;;;;7.43;5.00;;;8.30;99.90;;;;;;5051425;28;20067;-71
2022/04/29 00:14:30;;;;;;;8.43;5.37;;;8.30;99.90;;;;;;5051204;28;20033;-70
2022/04/29 00:16:56;;;;;;;12.57;6.17;;;;;;;;;;5051464;28;20370;-70
2022/04/29 00:19:22;;;;;;;11.93;6.20;;;8.30;99.90;;;;;;5051692;28;20129;-70
2022/04/29 00:21:47;;;;;;;14.03;6.73;;;8.20;99.90;;;;;;5050759;28;20179;-70
2022/04/29 00:24:13;;;;;;;8.60;5.80;;;;;;;;;;5051476;28;20036;-70
2022/04/29 00:26:39;;;;;;;7.10;5.13;;;7.30;99.90;;;;;;5051418;28;20124;-70
2022/04/29 00:29:06;;;;;;;6.83;4.93;;;7.80;99.90;;;;;;5051260;28;20520;-70
2022/04/29 00:31:32;;;;;;;10.77;5.67;;;8.00;99.90;;;;;;5051116;28;20037;-70
2022/04/29 00:33:58;;;;;;;10.80;5.90;;;;;;;;;;5050836;28;20029;-70
2022/04/29 00:36:25;;;;;;;11.83;6.10;;;;;;;;;;5050677;28;20090;-70
2022/04/29 00:38:50;;;;;;;12.30;6.93;;;8.30;99.90;;;;;;5051228;28;20029;-70
2022/04/29 00:41:21;;;;;;;9.03;6.93;;;8.00;99.90;;;;;;5050968;28;20060;-71
2022/04/29 00:43:57;;;;;;;16.90;8.13;;;7.90;99.90;;;;;;5050629;28;20063;-70
2022/04/29 00:46:22;;;;;;;12.33;7.87;;;8.00;99.90;;;;;;5051403;28;20043;-71
2022/04/29 00:48:48;;;;;;;8.57;6.40;;;;;;;;;;5050884;28;20037;-71
2022/04/29 00:51:14;;;;;;;15.50;7.57;;;7.80;99.90;;;;;;5050455;28;20432;-70
2022/04/29 00:53:39;;;;;;;14.07;7.67;;;7.80;99.90;;;;;;5049749;28;20037;-70
2022/04/29 00:56:05;;;;;;;11.57;7.33;;;7.80;99.90;;;;;;5050499;28;20073;-70
2022/04/29 00:58:43;;;;;;;14.90;8.63;;;7.80;99.90;;;;;;5050777;28;20037;-70
2022/04/29 01:01:09;;;;;;;10.70;7.60;;;;;;;;;;5050725;28;20051;-70
2022/04/29 01:03:37;;;;;;;12.13;7.47;;;7.70;99.90;;;;;;5050581;28;20498;-73
2022/04/29 01:06:03;;;;;;;11.17;7.80;;;;;;;;;;5050208;28;20064;-73
2022/04/29 01:08:29;;;;;;;12.23;7.80;;;;;;;;;;5050613;28;20497;-72
2022/04/29 01:10:56;;;;;;;14.93;7.77;;;7.60;99.90;;;;;;5050495;28;20210;-72
2022/04/29 01:13:22;;;;;;;11.87;8.67;;;7.40;99.90;;;;;;5050676;28;20033;-72
2022/04/29 01:15:50;;;;;;;13.17;8.20;;;;;;;;;;5050411;28;20059;-71
2022/04/29 01:18:17;;;;;;;25.20;9.23;;;7.50;99.90;;;;;;5050347;28;20036;-70
2022/04/29 01:20:43;;;;;;;13.37;9.90;;;7.50;99.90;;;;;;5049966;28;20485;-71
2022/04/29 01:23:11;;;;;;;16.23;9.10;;;7.50;99.90;;;;;;5050211;28;20028;-70
2022/04/29 01:25:38;;;;;;;13.60;9.10;;;7.50;99.90;;;;;;5050184;28;20021;-70
2022/04/29 01:28:04;;;;;;;14.30;8.60;;;;;;;;;;5049887;28;20033;-70
2022/04/29 01:30:31;;;;;;;19.37;10.53;;;7.50;99.90;;;;;;5049436;28;20037;-70
2022/04/29 01:32:57;;;;;;;11.17;8.53;;;7.50;99.90;;;;;;5049736;28;20382;-71
2022/04/29 01:35:23;;;;;;;18.27;10.37;;;;;;;;;;5050320;28;20436;-70
2022/04/29 01:37:49;;;;;;;14.43;9.63;;;7.50;99.90;;;;;;5050161;28;20108;-71
2022/04/29 01:40:16;;;;;;;19.40;9.70;;;;;;;;;;5050331;28;20075;-71
2022/04/29 01:42:43;;;;;;;18.60;11.20;;;7.50;99.90;;;;;;5050383;28;20086;-70
2022/04/29 01:45:10;;;;;;;17.53;11.53;;;7.50;99.90;;;;;;5049264;28;20115;-70
2022/04/29 01:47:36;;;;;;;18.07;11.47;;;7.20;99.90;;;;;;5049523;28;20072;-70
2022/04/29 01:50:01;;;;;;;16.00;10.33;;;7.80;99.90;;;;;;5049724;28;20033;-70
2022/04/29 01:52:27;;;;;;;14.13;10.03;;;6.90;99.90;;;;;;5050049;28;20036;-70
2022/04/29 01:54:53;;;;;;;15.43;9.23;;;;;;;;;;5049926;28;20029;-70
2022/04/29 01:57:18;;;;;;;14.43;10.67;;;7.30;99.90;;;;;;5049406;28;20033;-70
2022/04/29 01:59:44;;;;;;;22.63;9.80;;;;;;;;;;5049953;28;20037;-70
2022/04/29 02:02:10;;;;;;;17.83;11.47;;;7.30;99.90;;;;;;5048749;28;20097;-72
2022/04/29 02:04:36;;;;;;;16.63;10.40;;;;;;;;;;5049791;28;20021;-73
2022/04/29 02:07:03;;;;;;;14.33;9.70;;;7.40;99.90;;;;;;5049803;28;20443;-72
2022/04/29 02:09:29;;;;;;;32.10;10.30;;;7.30;99.90;;;;;;5048318;28;20490;-72
2022/04/29 02:12:06;;;;;;;23.63;12.37;;;7.30;99.90;;;;;;5049730;28;20040;-72
2022/04/29 02:14:32;;;;;;;16.73;9.77;;;;;;;;;;5049702;28;20096;-70
2022/04/29 02:16:58;;;;;;;17.77;10.37;;;7.30;99.90;;;;;;5048657;28;20181;-70
2022/04/29 02:19:25;;;;;;;14.73;10.13;;;7.30;99.90;;;;;;5049795;28;20101;-70
2022/04/29 02:21:51;;;;;;;23.13;10.93;;;7.20;99.90;;;;;;5049467;28;20037;-70
2022/04/29 02:24:17;;;;;;;14.50;8.90;;;7.30;99.90;;;;;;5049489;28;20022;-71
2022/04/29 02:26:43;;;;;;;19.77;9.27;;;7.20;99.90;;;;;;5049306;28;20036;-70
2022/04/29 02:29:09;;;;;;;20.13;11.13;;;7.20;99.90;;;;;;5049315;28;20040;-70
2022/04/29 02:31:34;;;;;;;19.43;9.77;;;7.30;99.90;;;;;;5049227;28;20127;-70
2022/04/29 02:34:00;;;;;;;16.27;11.40;;;7.20;99.90;;;;;;5049440;28;20385;-70
2022/04/29 02:36:26;;;;;;;14.77;10.47;;;7.30;99.90;;;;;;5049644;28;20496;-70
2022/04/29 02:38:51;;;;;;;16.43;10.67;;;7.20;99.90;;;;;;5049329;28;20033;-71
2022/04/29 02:41:17;;;;;;;15.13;11.17;;;7.20;99.90;;;;;;5049253;28;20064;-70
2022/04/29 02:43:43;;;;;;;23.93;12.07;;;;;;;;;;5049184;28;20045;-70
2022/04/29 02:46:09;;;;;;;16.73;11.33;;;7.30;99.90;;;;;;5049005;28;20030;-70
2022/04/29 02:48:35;;;;;;;16.73;10.73;;;;;;;;;;5049411;28;20036;-71
2022/04/29 02:51:04;;;;;;;21.13;12.50;;;;;;;;;;5049345;28;20022;-70
2022/04/29 02:53:30;;;;;;;16.57;10.57;;;6.70;99.90;;;;;;5049426;28;20025;-70
2022/04/29 02:55:56;;;;;;;19.47;11.77;;;;;;;;;;5049049;28;20544;-71
2022/04/29 02:58:21;;;;;;;20.07;11.50;;;7.20;99.90;;;;;;5068621;28;20091;-71
2022/04/29 03:00:47;;;;;;;20.33;12.40;;;7.30;99.90;;;;;;5052421;28;20116;-70
2022/04/29 03:03:13;;;;;;;22.33;12.03;;;;;;;;;;5052956;28;20041;-70
2022/04/29 03:05:39;;;;;;;19.17;11.03;;;7.20;99.90;;;;;;5052918;28;20029;-70
2022/04/29 03:08:05;;;;;;;18.47;12.67;;;;;;;;;;5052945;28;20071;-70
2022/04/29 03:10:30;;;;;;;19.07;11.10;;;7.30;99.90;;;;;;5052850;28;20087;-71
2022/04/29 03:12:56;;;;;;;25.37;12.70;;;;;;;;;;5052376;28;20037;-70
2022/04/29 03:15:25;;;;;;;17.90;12.00;;;7.10;99.90;;;;;;5052263;28;20040;-70
2022/04/29 03:20:37;;;;;;;14.60;9.57;;;7.00;99.90;;;;;;5052723;28;20031;-70
2022/04/29 03:23:04;;;;;;;21.07;12.77;;;7.30;99.90;;;;;;5052247;28;20039;-70
2022/04/29 03:25:29;;;;;;;18.57;11.13;;;7.10;99.90;;;;;;5066317;28;20457;-70
2022/04/29 03:27:55;;;;;;;20.33;11.37;;;7.10;99.90;;;;;;5050863;28;20060;-70
2022/04/29 03:30:21;;;;;;;16.47;11.37;;;7.10;99.90;;;;;;5051809;28;20025;-71
2022/04/29 03:32:53;;;;;;;16.90;10.80;;;7.00;99.90;;;;;;5051950;28;20028;-71
2022/04/29 03:35:19;;;;;;;14.30;10.20;;;7.00;99.90;;;;;;5052346;28;20029;-70
2022/04/29 03:37:45;;;;;;;17.97;9.70;;;;;;;;;;5052395;28;20074;-70
2022/04/29 03:40:13;;;;;;;18.70;11.93;;;6.90;99.90;;;;;;5052165;28;20041;-71
2022/04/29 03:42:39;;;;;;;18.80;10.77;;;7.00;99.90;;;;;;5052579;28;20040;-70
2022/04/29 03:45:05;;;;;;;16.93;10.60;;;7.00;99.90;;;;;;5051667;28;20025;-70
2022/04/29 03:47:31;;;;;;;21.10;11.00;;;7.00;99.90;;;;;;5051916;28;20028;-70
2022/04/29 03:49:57;;;;;;;21.20;11.70;;;;;;;;;;5067226;28;20484;-70
2022/04/29 03:52:22;;;;;;;18.37;11.83;;;7.00;99.90;;;;;;5052205;28;20078;-70
2022/04/29 03:54:48;;;;;;;19.63;12.20;;;;;;;;;;5052042;28;20041;-72
2022/04/29 03:57:14;;;;;;;18.97;11.77;;;7.00;99.90;;;;;;5052690;28;20025;-71
2022/04/29 03:59:39;;;;;;;18.03;10.50;;;7.40;99.90;;;;;;5052432;28;20033;-73
2022/04/29 04:02:05;;;;;;;22.83;12.03;;;7.00;99.90;;;;;;5061165;28;20032;-72
2022/04/29 04:04:30;;;;;;;23.97;12.57;;;7.10;99.90;;;;;;5071736;28;20040;-72
2022/04/29 04:07:01;;;;;;;16.10;9.53;;;7.00;99.90;;;;;;5071767;28;20025;-73
2022/04/29 04:09:27;;;;;;;19.87;10.00;;;;;;;;;;5071741;28;20037;-73
2022/04/29 04:11:53;;;;;;;19.97;11.20;;;7.00;99.90;;;;;;5071891;28;20024;-72
2022/04/29 04:14:18;;;;;;;17.37;9.63;;;7.00;99.90;;;;;;5071279;28;20089;-72
2022/04/29 04:16:47;;;;;;;19.00;10.70;;;7.00;99.90;;;;;;5060409;28;20036;-72
2022/04/29 04:19:13;;;;;;;19.90;10.80;;;7.10;99.90;;;;;;5050043;28;20029;-72
2022/04/29 04:21:39;;;;;;;20.13;10.10;;;7.10;99.90;;;;;;5051568;28;20043;-72
2022/04/29 04:24:06;;;;;;;18.13;9.83;;;7.00;99.90;;;;;;5051517;28;20115;-72
2022/04/29 04:26:32;;;;;;;20.93;10.93;;;7.60;99.90;;;;;;5051356;28;20020;-73
2022/04/29 04:28:58;;;;;;;26.13;12.90;;;;;;;;;;5050956;28;20025;-72
2022/04/29 04:31:24;;;;;;;21.93;9.70;;;;;;;;;;5051551;28;20035;-72
2022/04/29 04:33:50;;;;;;;23.50;11.67;;;7.10;99.90;;;;;;5051286;28;20104;-72
2022/04/29 04:36:16;;;;;;;24.13;11.90;;;7.10;99.90;;;;;;5051049;28;20037;-72
2022/04/29 04:38:42;;;;;;;21.90;10.30;;;7.00;99.90;;;;;;5051502;28;20074;-72
2022/04/29 04:41:08;;;;;;;23.50;11.33;;;;;;;;;;5050914;28;20048;-72
2022/04/29 04:43:35;;;;;;;19.17;9.43;;;7.20;99.90;;;;;;5050560;28;20033;-72
2022/04/29 04:46:01;;;;;;;14.77;10.23;;;7.30;99.90;;;;;;5051069;28;20447;-72
2022/04/29 04:48:27;;;;;;;20.93;10.50;;;;;;;;;;5049866;28;20040;-72
2022/04/29 04:50:53;;;;;;;19.37;10.33;;;7.20;99.90;;;;;;5049462;28;20100;-72
2022/04/29 04:53:19;;;;;;;19.90;10.67;;;7.10;99.90;;;;;;5050633;28;20029;-72
2022/04/29 04:55:45;;;;;;;25.23;10.40;;;;;;;;;;5050638;28;20082;-73
2022/04/29 04:58:11;;;;;;;20.03;10.43;;;;;;;;;;5050084;28;20116;-72
2022/04/29 05:00:38;;;;;;;19.27;10.03;;;7.20;99.90;;;;;;5050481;28;20025;-73
2022/04/29 05:03:05;;;;;;;18.17;9.83;;;7.20;99.90;;;;;;5050261;28;20044;-73
2022/04/29 05:05:32;;;;;;;20.53;11.37;;;7.20;99.90;;;;;;5050576;28;20017;-73
2022/04/29 05:07:57;;;;;;;23.90;10.50;;;7.30;99.90;;;;;;5050592;28;20032;-74
2022/04/29 05:10:23;;;;;;;20.80;12.23;;;7.30;99.90;;;;;;5050761;28;20025;-74
2022/04/29 05:12:49;;;;;;;17.27;10.17;;;;;;;;;;5049659;28;20033;-74
2022/04/29 05:15:14;;;;;;;15.63;10.90;;;7.30;99.90;;;;;;5050207;28;20291;-73
2022/04/29 05:17:43;;;;;;;25.03;11.67;;;7.20;99.90;;;;;;5050408;28;20470;-73
2022/04/29 05:20:11;;;;;;;17.03;9.40;;;7.40;99.90;;;;;;5049389;28;20025;-74
2022/04/29 05:22:36;;;;;;;17.87;10.37;;;7.30;99.90;;;;;;5050301;28;20075;-74
2022/04/29 05:25:03;;;;;;;15.87;10.20;;;7.30;99.90;;;;;;5049125;28;20118;-73
2022/04/29 05:27:29;;;;;;;23.23;11.03;;;;;;;;;;5047856;28;20493;-74
2022/04/29 05:29:55;;;;;;;22.97;11.30;;;;;;;;;;5050262;28;20124;-74
2022/04/29 05:32:21;;;;;;;19.07;10.00;;;7.20;99.90;;;;;;5050093;28;20052;-74
2022/04/29 05:34:47;;;;;;;16.10;11.13;;;7.50;99.90;;;;;;5050266;28;20021;-74
2022/04/29 05:37:13;;;;;;;22.20;11.23;;;7.30;99.90;;;;;;5050298;28;20446;-74
2022/04/29 05:42:24;;;;;;;22.57;11.00;;;7.90;99.90;;;;;;5050216;28;20405;-74
2022/04/29 05:44:50;;;;;;;19.80;11.20;;;7.60;99.90;;;;;;5049175;28;20025;-74
2022/04/29 05:47:15;;;;;;;18.80;9.70;;;;;;;;;;5049117;28;20055;-74
2022/04/29 05:49:41;;;;;;;14.37;9.90;;;7.70;99.90;;;;;;5049586;28;20378;-74
2022/04/29 05:52:08;;;;;;;19.63;9.33;;;7.80;99.90;;;;;;5049642;28;20064;-74
2022/04/29 05:54:35;;;;;;;25.80;13.23;;;7.70;99.90;;;;;;5049334;28;20473;-74
2022/04/29 05:57:01;;;;;;;15.37;9.70;;;7.70;99.90;;;;;;5050063;28;20029;-74
2022/04/29 05:59:28;;;;;;;18.53;11.07;;;7.80;99.90;;;;;;5050025;28;20025;-74
2022/04/29 06:01:54;;;;;;;16.30;10.67;;;7.70;99.90;;;;;;5049877;28;20036;-74
2022/04/29 06:04:20;;;;;;;20.87;11.83;;;7.70;99.90;;;;;;5048487;28;20044;-74
2022/04/29 06:06:46;;;;;;;17.70;12.07;;;7.60;99.90;;;;;;5049672;28;20112;-74
2022/04/29 06:09:12;;;;;;;18.23;9.87;;;7.80;99.90;;;;;;5049315;28;20037;-74
2022/04/29 06:11:37;;;;;;;22.17;10.37;;;7.70;99.90;;;;;;5049844;28;20370;-74
2022/04/29 06:14:03;;;;;;;23.10;11.47;;;7.60;99.90;;;;;;5048439;28;20132;-74
2022/04/29 06:16:29;;;;;;;18.20;10.00;;;;;;;;;;5049815;28;20037;-74
2022/04/29 06:18:55;;;;;;;18.20;10.27;;;;;;;;;;5049998;28;20726;-74
2022/04/29 06:21:21;;;;;;;18.53;11.20;;;;;;;;;;5049756;28;20059;-74
2022/04/29 06:23:47;;;;;;;19.03;10.07;;;8.10;99.90;;;;;;5051803;28;20420;-73
2022/04/29 06:26:12;;;;;;;25.13;12.37;;;8.00;99.90;;;;;;5054349;28;20033;-74
2022/04/29 06:28:39;;;;;;;18.87;10.77;;;8.00;99.90;;;;;;5050576;28;20033;-74
2022/04/29 06:31:05;;;;;;;22.33;11.70;;;8.30;99.90;;;;;;5051456;28;20048;-74
2022/04/29 06:33:31;;;;;;;19.30;11.57;;;8.00;99.90;;;;;;5053423;28;20040;-74
2022/04/29 06:35:57;;;;;;;17.70;9.00;;;8.20;99.90;;;;;;5054144;28;20033;-74
2022/04/29 06:38:23;;;;;;;17.07;10.53;;;8.30;99.90;;;;;;5056501;28;20033;-74
2022/04/29 06:40:50;;;;;;;18.13;10.70;;;;;;;;;;5054221;28;20056;-74
2022/04/29 06:43:16;;;;;;;18.47;9.20;;;8.30;99.90;;;;;;5053591;28;20040;-74
2022/04/29 06:45:42;;;;;;;19.17;10.77;;;;;;;;;;5068954;28;20063;-74
2022/04/29 06:48:08;;;;;;;26.70;12.00;;;8.40;99.90;;;;;;5053140;28;20033;-74
2022/04/29 06:50:34;;;;;;;76.53;19.90;;;;;;;;;;5053331;28;20040;-74
2022/04/29 06:53:00;;;;;;;20.10;11.73;;;8.60;99.90;;;;;;5052102;28;20056;-76
2022/04/29 06:55:26;;;;;;;29.07;13.83;;;8.60;99.90;;;;;;5052287;28;20112;-76
2022/04/29 06:57:52;;;;;;;21.83;11.80;;;8.50;99.90;;;;;;5052055;28;20084;-76
2022/04/29 07:00:19;;;;;;;16.33;11.07;;;8.70;99.90;;;;;;5052046;28;20045;-77
2022/04/29 07:02:44;;;;;;;17.07;10.07;;;8.70;99.90;;;;;;5051753;28;20037;-75
2022/04/29 07:05:10;;;;;;;20.93;11.27;;;8.80;99.90;;;;;;5051730;28;20017;-75
2022/04/29 07:07:36;;;;;;;19.30;10.20;;;8.80;99.90;;;;;;5051025;28;20043;-75
2022/04/29 07:10:02;;;;;;;17.37;9.47;;;;;;;;;;5051909;28;20053;-75
2022/04/29 07:12:27;;;;;;;18.13;10.10;;;8.90;99.90;;;;;;5051823;28;20393;-76
2022/04/29 07:14:53;;;;;;;23.50;11.07;;;;;;;;;;5051643;28;20465;-76
2022/04/29 07:17:20;;;;;;;13.70;8.83;;;9.00;99.90;;;;;;5051829;28;20156;-75
2022/04/29 07:19:46;;;;;;;23.50;11.13;;;9.20;99.90;;;;;;5051694;28;20021;-75
2022/04/29 07:22:12;;;;;;;17.57;11.37;;;;;;;;;;5051084;28;20381;-76
2022/04/29 07:24:38;;;;;;;17.33;10.23;;;;;;;;;;5051476;28;20029;-75
2022/04/29 07:27:05;;;;;;;17.03;9.27;;;9.20;99.90;;;;;;5050759;28;20041;-76
2022/04/29 07:29:31;;;;;;;16.73;8.97;;;;;;;;;;5051352;28;20064;-76
2022/04/29 07:31:57;;;;;;;16.27;8.30;;;9.40;99.90;;;;;;5051247;28;20048;-76
2022/04/29 07:41:44;;;;;;;13.77;8.13;;;;;;;;;;5051628;28;20525;-75
2022/04/29 07:42:36;;;;;;;12.67;7.73;;;9.30;99.90;;;;;;5049966;28;20056;-74
2022/04/29 07:45:02;;;;;;;13.37;8.17;;;10.10;99.90;;;;;;5050939;28;20389;-75
2022/04/29 07:47:28;;;;;;;17.70;9.83;;;10.00;99.90;;;;;;5051177;28;20033;-76
2022/04/29 07:49:53;;;;;;;11.63;7.50;;;;;;;;;;5050880;28;20021;-75
2022/04/29 07:52:19;;;;;;;19.83;8.60;;;10.20;99.90;;;;;;5049944;28;20025;-74
2022/04/29 07:54:44;;;;;;;16.47;9.40;;;10.30;99.90;;;;;;5051108;28;20028;-76
2022/04/29 07:57:10;;;;;;;18.10;9.43;;;10.50;99.90;;;;;;5050446;28;20474;-77
2022/04/29 07:59:35;;;;;;;19.47;9.17;;;10.50;99.90;;;;;;5051685;28;20032;-76
2022/04/29 08:02:01;;;;;;;40.17;9.70;;;10.50;99.90;;;;;;5051691;28;20033;-76
2022/04/29 08:04:27;;;;;;;18.17;8.97;;;10.90;99.90;;;;;;5050834;28;20025;-75
2022/04/29 08:06:53;;;;;;;18.42;8.85;;;;;;;;;;5049152;28;20432;-76
2022/04/29 08:09:18;;;;;;;17.17;8.52;;;10.80;99.90;;;;;;5051589;28;20035;-75
2022/04/29 08:11:44;;;;;;;17.40;7.95;;;;;;;;;;5051901;28;20021;-78
2022/04/29 08:14:10;;;;;;;13.95;7.55;;;11.00;99.90;;;;;;5051805;28;20037;-76
2022/04/29 08:16:36;;;;;;;13.50;7.63;;;11.40;99.90;;;;;;5051575;28;20473;-76
2022/04/29 08:19:02;;;;;;;13.23;7.75;;;11.40;99.90;;;;;;5050686;28;20075;-76
2022/04/29 08:21:28;;;;;;;13.02;7.68;;;;;;;;;;5051360;28;20539;-76
2022/04/29 08:23:53;;;;;;;19.83;8.87;;;11.80;99.90;;;;;;5051497;28;20486;-76
2022/04/29 08:26:19;;;;;;;14.75;8.38;;;;;;;;;;5051307;28;20033;-74
2022/04/29 08:28:45;;;;;;;15.32;7.25;;;11.40;99.90;;;;;;5051502;28;20390;-74
2022/04/29 08:31:11;;;;;;;16.63;8.23;;;11.40;99.90;;;;;;5051397;28;20466;-74
2022/04/29 08:33:37;;;;;;;15.35;8.57;;;;;;;;;;5050438;28;20095;-74
2022/04/29 08:36:03;;;;;;;17.15;8.95;;;;;;;;;;5051166;28;20424;-74
2022/04/29 08:38:30;;;;;;;14.07;7.80;;;;;;;;;;5051215;28;20100;-74
2022/04/29 08:41:00;;;;;;;11.70;6.40;;;11.50;99.30;;;;;;5050799;28;20052;-74
2022/04/29 08:43:26;;;;;;;13.82;7.47;;;11.90;99.90;;;;;;5066413;28;20048;-74
2022/04/29 08:45:53;;;;;;;16.90;7.22;;;;;;;;;;5050975;28;20049;-74
2022/04/29 08:48:18;;;;;;;12.70;7.72;;;12.00;99.90;;;;;;5050528;28;20033;-74
2022/04/29 08:50:44;;;;;;;11.73;7.80;;;;;;;;;;5051077;28;20028;-74
2022/04/29 08:53:10;;;;;;;10.95;6.15;;;12.00;99.90;;;;;;5050618;28;20033;-73
2022/04/29 08:58:36;;;;;;;14.48;6.35;;;12.20;99.90;;;;;;5066428;28;20451;-74
2022/04/29 09:01:16;;;;;;;9.30;6.55;;;12.40;96.90;;;;;;5055895;28;20025;-76
2022/04/29 09:03:43;;;;;;;13.30;7.43;;;12.70;99.90;;;;;;5050954;28;20036;-75
2022/04/29 09:06:09;;;;;;;8.88;6.05;;;12.40;99.90;;;;;;5053578;28;20025;-75
2022/04/29 09:08:43;;;;;;;9.25;6.25;;;12.50;99.90;;;;;;5059852;28;20025;-74
2022/04/29 09:11:10;;;;;;;12.95;6.28;;;13.00;99.90;;;;;;5064426;28;20056;-75
2022/04/29 09:13:39;;;;;;;10.68;6.65;;;13.30;99.90;;;;;;5053951;28;20037;-75
2022/04/29 09:16:07;;;;;;;15.63;6.97;;;13.50;99.90;;;;;;5052038;28;20033;-75
2022/04/29 09:18:48;;;;;;;14.93;8.23;;;13.60;99.90;;;;;;5050355;28;20028;-73
2022/04/29 09:21:15;;;;;;;9.60;6.20;;;13.40;99.90;;;;;;5049900;28;20028;-73
2022/04/29 09:23:44;;;;;;;10.23;5.97;;;13.30;94.40;;;;;;5050449;28;20044;-73
2022/04/29 09:26:30;;;;;;;7.30;5.82;;;13.70;99.90;;;;;;5050784;28;20025;-75
2022/04/29 09:29:10;;;;;;;9.02;6.40;;;13.80;94.70;;;;;;5049795;28;20116;-75
2022/04/29 09:31:58;;;;;;;16.23;6.95;;;13.90;94.40;;;;;;5049923;28;20033;-75
2022/04/29 09:34:42;;;;;;;14.13;7.00;;;14.10;93.60;;;;;;5050168;28;20021;-74
2022/04/29 09:37:16;;;;;;;13.38;8.13;;;13.40;99.90;;;;;;5050092;28;20029;-74
2022/04/29 09:40:05;;;;;;;12.57;7.72;;;14.20;93.60;;;;;;5050157;28;20063;-74
2022/04/29 09:42:40;;;;;;;13.23;7.10;;;13.80;94.00;;;;;;5049036;28;20052;-76
2022/04/29 09:45:17;;;;;;;14.50;8.27;;;13.90;93.60;;;;;;5049781;28;20156;-75
2022/04/29 09:47:43;;;;;;;9.02;6.72;;;13.90;99.80;;;;;;5054110;28;20033;-75
2022/04/29 09:50:09;;;;;;;10.68;7.20;;;13.80;92.90;;;;;;5050007;28;20497;-76
2022/04/29 09:52:39;;;;;;;13.73;8.15;;;14.00;99.90;;;;;;5050030;28;20029;-78
2022/04/29 09:55:17;;;;;;;11.23;7.78;;;14.00;99.80;;;;;;5048199;28;20017;-75
2022/04/29 09:57:51;;;;;;;14.43;7.75;;;14.00;93.40;;;;;;5049060;28;20036;-74
2022/04/29 10:00:17;;;;;;;13.02;7.32;;;14.20;92.40;;;;;;5048306;28;20104;-74
2022/04/29 10:02:42;;;;;;;8.57;6.13;;;14.30;92.60;;;;;;5036103;28;20135;-74
2022/04/29 10:05:08;;;;;;;10.20;6.45;;;14.40;92.50;;;;;;5049437;28;20717;-74
2022/04/29 10:07:36;;;;;;;11.60;8.50;;;14.60;92.30;;;;;;5048364;28;20676;-76
2022/04/29 10:10:04;;;;;;;13.82;8.38;;;14.50;92.30;;;;;;5049680;28;20452;-76
2022/04/29 10:12:31;;;;;;;9.80;7.90;;;14.40;92.40;;;;;;5049118;28;20074;-75
2022/04/29 10:14:59;;;;;;;13.60;8.02;;;14.30;92.40;;;;;;5049352;28;20029;-74
2022/04/29 10:23:07;;;;;;;11.35;7.10;;;14.50;92.30;;;;;;5061287;28;20106;-74
2022/04/29 10:25:33;;;;;;;;;;;14.50;91.60;;;;;;5048377;28;20918;-74
2022/04/29 10:28:03;;;;;;;12.60;6.85;;;14.40;92.80;;;;;;5048081;28;20381;-77
2022/04/29 10:30:31;;;;;;;9.68;6.43;;;14.50;92.10;;;;;;5063132;28;20486;-77
2022/04/29 10:33:06;;;;;;;17.65;7.65;;;14.50;92.10;;;;;;5048356;28;20040;-74
2022/04/29 10:35:42;;;;;;;11.48;6.50;;;14.50;92.30;;;;;;5048463;28;20029;-74
2022/04/29 10:38:31;;;;;;;10.18;6.50;;;14.60;92.40;;;;;;5048150;28;20036;-74
2022/04/29 10:41:15;;;;;;;11.55;6.78;;;14.70;91.50;;;;;;5048150;28;20052;-73
2022/04/29 10:43:45;;;;;;;8.48;5.88;;;14.80;92.00;;;;;;5047700;28;20079;-74
2022/04/29 10:46:10;;;;;;;11.52;6.75;;;14.70;91.30;;;;;;5063086;28;20049;-76
2022/04/29 10:48:38;;;;;;;9.40;6.45;;;14.80;91.30;;;;;;5047548;28;20425;-76
2022/04/29 10:51:11;;;;;;;13.55;6.60;;;14.90;91.30;;;;;;5048225;28;20386;-77
2022/04/29 10:53:40;;;;;;;7.95;5.13;;;14.90;91.50;;;;;;5048052;28;20032;-77
2022/04/29 10:56:31;;;;;;;14.07;6.78;;;14.80;91.20;;;;;;5049152;28;20044;-77
2022/04/29 10:59:19;;;;;;;7.82;5.85;;;15.00;90.70;;;;;;5048320;28;20025;-80
2022/04/29 11:01:50;;;;;;;7.60;6.28;;;15.10;90.60;;;;;;5047404;28;20082;-79
2022/04/29 11:04:15;;;;;;;9.73;6.63;;;15.00;90.90;;;;;;5047412;28;20044;-78
2022/04/29 11:06:46;;;;;;;11.52;6.97;;;14.90;90.40;;;;;;5048879;28;20025;-76
2022/04/29 11:09:25;;;;;;;8.80;6.25;;;14.90;90.50;;;;;;5049105;28;20091;-76
2022/04/29 11:11:52;;;;;;;11.75;6.88;;;14.80;90.90;;;;;;5049305;28;20104;-73
2022/04/29 11:14:18;;;;;;;16.08;7.72;;;14.80;90.50;;;;;;5048025;28;20033;-75
2022/04/29 11:16:55;;;;;;;10.93;6.22;;;14.80;90.50;;;;;;5048735;28;20071;-74
2022/04/29 11:19:34;;;;;;;8.68;6.70;;;14.90;90.70;;;;;;5052519;28;20017;-76
2022/04/29 11:24:51;;;;;;;12.35;6.70;;;14.90;90.60;;;;;;5032708;28;20047;-75
2022/04/29 11:27:28;;;;;;;12.80;7.13;;;14.80;88.80;;;;;;5057029;28;20089;-76
2022/04/29 11:29:56;;;;;;;7.50;4.70;;;14.70;90.70;;;;;;5043172;28;20029;-75
2022/04/29 11:32:26;;;;;;;11.20;5.82;;;14.90;90.50;;;;;;5034965;28;20025;-76
2022/04/29 11:34:53;;;;;;;11.35;7.15;;;14.90;90.20;;;;;;5070962;28;20029;-76
2022/04/29 11:37:27;;;;;;;12.63;6.85;;;14.90;90.10;;;;;;5057296;28;20484;-76
2022/04/29 11:39:55;;;;;;;10.35;7.47;;;14.90;90.50;;;;;;5072326;28;20048;-75
2022/04/29 11:42:21;;;;;;;15.65;7.45;;;14.90;90.30;;;;;;5055013;28;20504;-75
2022/04/29 11:44:49;;;;;;;10.10;7.53;;;14.90;90.10;;;;;;5052420;28;20021;-76
2022/04/29 11:47:16;;;;;;;7.53;6.75;;;14.80;90.00;;;;;;5052533;28;20075;-76
2022/04/29 11:49:42;;;;;;;10.10;7.43;;;14.80;90.20;;;;;;5052457;28;20028;-76
2022/04/29 11:52:30;;;;;;;13.73;6.40;;;14.80;90.30;;;;;;5051969;28;20017;-76
2022/04/29 11:55:06;;;;;;;10.10;5.93;;;15.70;91.10;;;;;;5051861;28;20048;-77
2022/04/29 11:57:41;;;;;;;9.23;7.90;;;15.10;89.30;;;;;;5051240;28;20493;-76
2022/04/29 12:00:08;;;;;;;7.88;6.03;;;15.00;90.10;;;;;;5051221;28;20029;-76
2022/04/29 12:02:33;;;;;;;9.35;6.53;;;14.90;90.00;;;;;;5051166;28;20396;-76
2022/04/29 12:05:03;;;;;;;7.93;6.47;;;15.00;89.80;;;;;;5051174;28;20032;-76
2022/04/29 12:07:40;;;;;;;12.07;6.15;;;14.90;90.10;;;;;;5051477;28;20033;-76
2022/04/29 12:10:14;;;;;;;11.38;5.63;;;15.00;87.80;;;;;;5051230;28;20040;-76
2022/04/29 12:12:40;;;;;;;7.65;5.95;;;15.00;90.10;;;;;;5049283;28;20156;-75
2022/04/29 12:15:09;;;;;;;9.27;6.90;;;15.00;89.30;;;;;;5051172;28;20036;-75
2022/04/29 12:17:38;;;;;;;9.80;6.35;;;15.10;90.10;;;;;;5051498;28;20051;-75
2022/04/29 12:20:05;;;;;;;6.97;5.20;;;15.20;89.70;;;;;;5051158;28;20059;-75
2022/04/29 12:22:36;;;;;;;8.45;5.13;;;15.50;88.80;;;;;;5050113;28;20044;-75
2022/04/29 12:25:21;;;;;;;10.32;6.47;;;15.50;89.20;;;;;;5051262;28;20032;-75
2022/04/29 12:28:04;;;;;;;8.90;6.20;;;15.70;89.20;;;;;;5050050;28;20017;-75
2022/04/29 12:36:13;;;;;;;7.82;6.03;;;15.70;86.00;;;;;;5051315;28;19951;-74
2022/04/29 12:38:45;;;;;;;10.98;5.35;;;15.50;86.70;;;;;;5050578;28;20029;-74
2022/04/29 12:41:22;;;;;;;6.68;5.93;;;15.80;84.50;;;;;;5049890;28;20537;-75
2022/04/29 12:43:48;;;;;;;6.43;4.95;;;15.90;84.60;;;;;;5051151;28;20035;-76
2022/04/29 12:46:14;;;;;;;8.57;5.63;;;15.90;85.40;;;;;;5049559;28;20029;-75
2022/04/29 12:48:51;;;;;;;8.75;5.60;;;15.90;84.80;;;;;;5050677;28;20021;-75
2022/04/29 12:51:34;;;;;;;8.60;5.18;;;16.00;84.10;;;;;;5050726;28;20048;-75
2022/04/29 12:54:05;;;;;;;9.32;6.00;;;15.90;85.60;;;;;;5050717;28;20078;-75
2022/04/29 12:56:35;;;;;;;7.10;5.82;;;15.90;84.80;;;;;;5050389;28;20055;-75
2022/04/29 12:59:04;;;;;;;7.35;6.45;;;15.90;85.20;;;;;;5050367;28;20013;-75
2022/04/29 13:01:40;;;;;;;6.15;4.25;;;15.90;84.70;;;;;;5050333;28;20029;-75
2022/04/29 13:04:06;;;;;;;7.45;5.00;;;16.00;84.70;;;;;;5049917;28;20156;-75
2022/04/29 13:06:32;;;;;;;6.55;5.53;;;15.90;83.10;;;;;;5051089;28;20028;-77
2022/04/29 13:08:58;;;;;;;13.93;6.00;;;16.00;83.00;;;;;;5050242;28;20063;-76
2022/04/29 13:11:25;;;;;;;10.18;5.75;;;16.00;82.80;;;;;;5050450;28;20044;-73
2022/04/29 13:13:52;;;;;;;12.48;6.07;;;15.90;82.90;;;;;;5050583;28;20025;-75
2022/04/29 13:16:19;;;;;;;10.88;5.43;;;15.80;83.20;;;;;;5050360;28;20025;-75
2022/04/29 13:18:45;;;;;;;8.25;5.35;;;15.80;84.10;;;;;;5050184;28;20094;-75
2022/04/29 13:21:11;;;;;;;8.27;4.85;;;15.80;83.90;;;;;;5050035;28;20469;-75
2022/04/29 13:23:39;;;;;;;6.95;4.93;;;15.80;85.00;;;;;;5050057;28;20375;-74
2022/04/29 13:26:05;;;;;;;8.77;5.35;;;15.90;84.00;;;;;;5049744;28;20495;-74
2022/04/29 13:28:35;;;;;;;7.30;6.38;;;16.20;83.70;;;;;;5050456;28;20029;-74
2022/04/29 13:31:02;;;;;;;8.23;5.47;;;16.00;81.60;;;;;;5049950;28;20378;-74